sensor_id;sensor_type;location;lat;lon;timestamp;P1;durP1;ratioP1;P2;durP2;ratioP2
45548;SDS011;31270;48.328;10.096;2023-12-22T00:00:27;6.87;;;2.00;;
45548;SDS011;31270;48.328;10.096;2023-12-22T00:02:52;6.63;;;1.90;;
45548;SDS011;31270;48.328;10.096;2023-12-22T00:05:18;5.87;;;2.00;;
45548;SDS011;31270;48.328;10.096;2023-12-22T00:07:43;1.97;;;1.50;;
45548;SDS011;31270;48.328;10.096;2023-12-22T00:10:09;3.83;;;1.60;;
45548;SDS011;31270;48.328;10.096;2023-12-22T00:12:35;5.33;;;2.00;;
45548;SDS011;31270;48.328;10.096;2023-12-22T00:15:00;3.83;;;1.63;;
45548;SDS011;31270;48.328;10.096;2023-12-22T00:17:26;4.83;;;1.67;;
45548;SDS011;31270;48.328;10.096;2023-12-22T00:19:51;2.10;;;1.67;;
45548;SDS011;31270;48.328;10.096;2023-12-22T00:22:17;2.03;;;1.20;;
45548;SDS011;31270;48.328;10.096;2023-12-22T00:24:43;2.13;;;1.10;;
45548;SDS011;31270;48.328;10.096;2023-12-22T00:27:08;1.90;;;1.10;;
45548;SDS011;31270;48.328;10.096;2023-12-22T00:29:34;1.70;;;0.83;;
45548;SDS011;31270;48.328;10.096;2023-12-22T00:32:02;1.23;;;0.90;;
45548;SDS011;31270;48.328;10.096;2023-12-22T00:34:28;0.80;;;0.80;;
45548;SDS011;31270;48.328;10.096;2023-12-22T00:36:53;1.50;;;1.00;;
45548;SDS011;31270;48.328;10.096;2023-12-22T00:39:19;1.00;;;0.90;;
45548;SDS011;31270;48.328;10.096;2023-12-22T00:41:44;0.97;;;0.67;;
45548;SDS011;31270;48.328;10.096;2023-12-22T00:44:10;2.20;;;0.90;;
45548;SDS011;31270;48.328;10.096;2023-12-22T00:46:36;2.03;;;0.80;;
45548;SDS011;31270;48.328;10.096;2023-12-22T00:49:01;1.60;;;0.80;;
45548;SDS011;31270;48.328;10.096;2023-12-22T00:51:27;1.23;;;0.80;;
45548;SDS011;31270;48.328;10.096;2023-12-22T00:53:52;0.90;;;0.90;;
45548;SDS011;31270;48.328;10.096;2023-12-22T00:56:18;0.80;;;0.80;;
45548;SDS011;31270;48.328;10.096;2023-12-22T00:58:44;1.67;;;0.70;;
45548;SDS011;31270;48.328;10.096;2023-12-22T01:01:10;2.00;;;0.80;;
45548;SDS011;31270;48.328;10.096;2023-12-22T01:03:35;1.03;;;0.83;;
45548;SDS011;31270;48.328;10.096;2023-12-22T01:06:01;0.83;;;0.60;;
45548;SDS011;31270;48.328;10.096;2023-12-22T01:08:27;3.00;;;0.87;;
45548;SDS011;31270;48.328;10.096;2023-12-22T01:10:52;4.30;;;0.90;;
45548;SDS011;31270;48.328;10.096;2023-12-22T01:13:18;2.90;;;1.07;;
45548;SDS011;31270;48.328;10.096;2023-12-22T01:15:43;2.63;;;1.13;;
45548;SDS011;31270;48.328;10.096;2023-12-22T01:18:10;2.40;;;1.50;;
45548;SDS011;31270;48.328;10.096;2023-12-22T01:20:36;3.03;;;1.50;;
45548;SDS011;31270;48.328;10.096;2023-12-22T01:23:01;2.53;;;1.80;;
45548;SDS011;31270;48.328;10.096;2023-12-22T01:25:27;6.23;;;1.70;;
45548;SDS011;31270;48.328;10.096;2023-12-22T01:27:53;4.10;;;1.77;;
45548;SDS011;31270;48.328;10.096;2023-12-22T01:30:18;5.47;;;2.20;;
45548;SDS011;31270;48.328;10.096;2023-12-22T01:32:44;5.10;;;2.13;;
45548;SDS011;31270;48.328;10.096;2023-12-22T01:35:10;2.80;;;1.50;;
45548;SDS011;31270;48.328;10.096;2023-12-22T01:37:36;3.97;;;1.90;;
45548;SDS011;31270;48.328;10.096;2023-12-22T01:40:02;6.17;;;1.80;;
45548;SDS011;31270;48.328;10.096;2023-12-22T01:42:28;2.67;;;1.60;;
45548;SDS011;31270;48.328;10.096;2023-12-22T01:44:54;4.70;;;1.70;;
45548;SDS011;31270;48.328;10.096;2023-12-22T01:47:20;6.63;;;2.10;;
45548;SDS011;31270;48.328;10.096;2023-12-22T01:49:46;4.87;;;2.37;;
45548;SDS011;31270;48.328;10.096;2023-12-22T01:52:12;3.50;;;1.87;;
45548;SDS011;31270;48.328;10.096;2023-12-22T01:54:38;3.50;;;1.90;;
45548;SDS011;31270;48.328;10.096;2023-12-22T01:57:04;3.87;;;1.80;;
45548;SDS011;31270;48.328;10.096;2023-12-22T01:59:30;4.20;;;1.90;;
45548;SDS011;31270;48.328;10.096;2023-12-22T02:02:00;4.47;;;1.90;;
45548;SDS011;31270;48.328;10.096;2023-12-22T02:04:28;4.80;;;1.73;;
45548;SDS011;31270;48.328;10.096;2023-12-22T02:06:59;5.87;;;2.10;;
45548;SDS011;31270;48.328;10.096;2023-12-22T02:09:27;4.47;;;1.90;;
45548;SDS011;31270;48.328;10.096;2023-12-22T02:11:52;6.90;;;1.53;;
45548;SDS011;31270;48.328;10.096;2023-12-22T02:14:18;3.37;;;1.73;;
45548;SDS011;31270;48.328;10.096;2023-12-22T02:16:46;3.23;;;1.63;;
45548;SDS011;31270;48.328;10.096;2023-12-22T02:19:33;6.80;;;1.30;;
45548;SDS011;31270;48.328;10.096;2023-12-22T02:22:09;7.63;;;1.60;;
45548;SDS011;31270;48.328;10.096;2023-12-22T02:24:37;2.97;;;1.33;;
45548;SDS011;31270;48.328;10.096;2023-12-22T02:27:19;1.17;;;0.90;;
45548;SDS011;31270;48.328;10.096;2023-12-22T02:29:54;2.30;;;1.23;;
45548;SDS011;31270;48.328;10.096;2023-12-22T02:32:30;1.67;;;0.87;;
45548;SDS011;31270;48.328;10.096;2023-12-22T02:34:59;2.83;;;1.00;;
45548;SDS011;31270;48.328;10.096;2023-12-22T02:37:34;0.73;;;0.60;;
45548;SDS011;31270;48.328;10.096;2023-12-22T02:40:00;1.13;;;0.87;;
45548;SDS011;31270;48.328;10.096;2023-12-22T02:42:27;2.53;;;0.90;;
45548;SDS011;31270;48.328;10.096;2023-12-22T02:44:58;1.60;;;0.90;;
45548;SDS011;31270;48.328;10.096;2023-12-22T02:47:24;1.00;;;0.80;;
45548;SDS011;31270;48.328;10.096;2023-12-22T02:49:52;0.90;;;0.90;;
45548;SDS011;31270;48.328;10.096;2023-12-22T02:52:18;1.87;;;1.23;;
45548;SDS011;31270;48.328;10.096;2023-12-22T02:54:44;1.07;;;0.70;;
45548;SDS011;31270;48.328;10.096;2023-12-22T02:57:12;0.93;;;0.87;;
45548;SDS011;31270;48.328;10.096;2023-12-22T02:59:38;0.80;;;0.80;;
45548;SDS011;31270;48.328;10.096;2023-12-22T03:02:04;1.37;;;0.73;;
45548;SDS011;31270;48.328;10.096;2023-12-22T03:04:30;1.00;;;1.00;;
45548;SDS011;31270;48.328;10.096;2023-12-22T03:06:56;1.47;;;0.97;;
45548;SDS011;31270;48.328;10.096;2023-12-22T03:09:21;1.00;;;0.70;;
45548;SDS011;31270;48.328;10.096;2023-12-22T03:11:47;4.03;;;1.33;;
45548;SDS011;31270;48.328;10.096;2023-12-22T03:14:13;2.20;;;0.90;;
45548;SDS011;31270;48.328;10.096;2023-12-22T03:16:39;1.57;;;0.97;;
45548;SDS011;31270;48.328;10.096;2023-12-22T03:19:06;3.00;;;1.17;;
45548;SDS011;31270;48.328;10.096;2023-12-22T03:21:32;1.60;;;1.10;;
45548;SDS011;31270;48.328;10.096;2023-12-22T03:23:57;3.83;;;0.90;;
45548;SDS011;31270;48.328;10.096;2023-12-22T03:26:23;3.27;;;1.73;;
45548;SDS011;31270;48.328;10.096;2023-12-22T03:28:51;1.63;;;0.87;;
45548;SDS011;31270;48.328;10.096;2023-12-22T03:31:17;3.43;;;1.50;;
45548;SDS011;31270;48.328;10.096;2023-12-22T03:33:42;2.80;;;1.40;;
45548;SDS011;31270;48.328;10.096;2023-12-22T03:36:08;3.07;;;1.50;;
45548;SDS011;31270;48.328;10.096;2023-12-22T03:38:33;2.07;;;1.30;;
45548;SDS011;31270;48.328;10.096;2023-12-22T03:40:59;2.70;;;1.43;;
45548;SDS011;31270;48.328;10.096;2023-12-22T03:43:24;3.27;;;1.33;;
45548;SDS011;31270;48.328;10.096;2023-12-22T03:45:50;3.53;;;1.37;;
45548;SDS011;31270;48.328;10.096;2023-12-22T03:48:16;3.87;;;1.57;;
45548;SDS011;31270;48.328;10.096;2023-12-22T03:50:41;3.67;;;1.27;;
45548;SDS011;31270;48.328;10.096;2023-12-22T03:53:07;3.43;;;1.70;;
45548;SDS011;31270;48.328;10.096;2023-12-22T03:55:32;1.80;;;1.07;;
45548;SDS011;31270;48.328;10.096;2023-12-22T03:57:58;1.70;;;1.00;;
45548;SDS011;31270;48.328;10.096;2023-12-22T04:00:24;3.03;;;1.43;;
45548;SDS011;31270;48.328;10.096;2023-12-22T04:02:49;2.93;;;1.10;;
45548;SDS011;31270;48.328;10.096;2023-12-22T04:05:15;1.47;;;1.17;;
45548;SDS011;31270;48.328;10.096;2023-12-22T04:07:40;2.60;;;1.20;;
45548;SDS011;31270;48.328;10.096;2023-12-22T04:10:06;2.97;;;1.10;;
45548;SDS011;31270;48.328;10.096;2023-12-22T04:12:32;2.03;;;1.13;;
45548;SDS011;31270;48.328;10.096;2023-12-22T04:14:58;4.77;;;1.10;;
45548;SDS011;31270;48.328;10.096;2023-12-22T04:17:23;3.17;;;1.10;;
45548;SDS011;31270;48.328;10.096;2023-12-22T04:19:49;2.33;;;0.90;;
45548;SDS011;31270;48.328;10.096;2023-12-22T04:22:14;1.30;;;1.20;;
45548;SDS011;31270;48.328;10.096;2023-12-22T04:24:40;1.83;;;0.90;;
45548;SDS011;31270;48.328;10.096;2023-12-22T04:27:06;1.83;;;1.20;;
45548;SDS011;31270;48.328;10.096;2023-12-22T04:29:31;1.23;;;1.10;;
45548;SDS011;31270;48.328;10.096;2023-12-22T04:31:57;1.90;;;1.17;;
45548;SDS011;31270;48.328;10.096;2023-12-22T04:34:23;4.30;;;1.00;;
45548;SDS011;31270;48.328;10.096;2023-12-22T04:36:48;4.00;;;1.03;;
45548;SDS011;31270;48.328;10.096;2023-12-22T04:39:14;2.80;;;1.20;;
45548;SDS011;31270;48.328;10.096;2023-12-22T04:41:39;2.50;;;0.87;;
45548;SDS011;31270;48.328;10.096;2023-12-22T04:44:05;3.17;;;1.30;;
45548;SDS011;31270;48.328;10.096;2023-12-22T04:46:31;2.37;;;1.40;;
45548;SDS011;31270;48.328;10.096;2023-12-22T04:48:56;5.23;;;1.27;;
45548;SDS011;31270;48.328;10.096;2023-12-22T04:51:22;4.80;;;1.30;;
45548;SDS011;31270;48.328;10.096;2023-12-22T04:53:48;3.53;;;1.23;;
45548;SDS011;31270;48.328;10.096;2023-12-22T04:56:14;2.30;;;1.27;;
45548;SDS011;31270;48.328;10.096;2023-12-22T04:58:40;1.57;;;1.00;;
45548;SDS011;31270;48.328;10.096;2023-12-22T05:01:06;2.83;;;1.73;;
45548;SDS011;31270;48.328;10.096;2023-12-22T05:03:31;4.40;;;1.10;;
45548;SDS011;31270;48.328;10.096;2023-12-22T05:05:57;6.00;;;1.83;;
45548;SDS011;31270;48.328;10.096;2023-12-22T05:08:29;4.00;;;1.30;;
45548;SDS011;31270;48.328;10.096;2023-12-22T05:10:54;5.83;;;1.37;;
45548;SDS011;31270;48.328;10.096;2023-12-22T05:13:20;2.90;;;1.40;;
45548;SDS011;31270;48.328;10.096;2023-12-22T05:15:45;6.83;;;1.60;;
45548;SDS011;31270;48.328;10.096;2023-12-22T05:18:11;5.17;;;1.43;;
45548;SDS011;31270;48.328;10.096;2023-12-22T05:20:37;1.73;;;1.30;;
45548;SDS011;31270;48.328;10.096;2023-12-22T05:23:02;2.10;;;1.20;;
45548;SDS011;31270;48.328;10.096;2023-12-22T05:25:28;7.47;;;3.63;;
45548;SDS011;31270;48.328;10.096;2023-12-22T05:27:54;5.93;;;1.50;;
45548;SDS011;31270;48.328;10.096;2023-12-22T05:30:19;3.73;;;1.90;;
45548;SDS011;31270;48.328;10.096;2023-12-22T05:32:45;5.27;;;1.70;;
45548;SDS011;31270;48.328;10.096;2023-12-22T05:35:11;2.57;;;1.50;;
45548;SDS011;31270;48.328;10.096;2023-12-22T05:37:37;5.90;;;1.63;;
45548;SDS011;31270;48.328;10.096;2023-12-22T05:40:02;3.07;;;1.47;;
45548;SDS011;31270;48.328;10.096;2023-12-22T05:42:31;4.83;;;1.50;;
45548;SDS011;31270;48.328;10.096;2023-12-22T05:44:57;2.37;;;1.47;;
45548;SDS011;31270;48.328;10.096;2023-12-22T05:47:23;2.03;;;1.23;;
45548;SDS011;31270;48.328;10.096;2023-12-22T05:49:49;3.60;;;1.40;;
45548;SDS011;31270;48.328;10.096;2023-12-22T05:52:14;4.60;;;1.90;;
45548;SDS011;31270;48.328;10.096;2023-12-22T05:54:40;2.30;;;1.30;;
45548;SDS011;31270;48.328;10.096;2023-12-22T05:57:06;3.93;;;1.53;;
45548;SDS011;31270;48.328;10.096;2023-12-22T05:59:32;3.57;;;1.23;;
45548;SDS011;31270;48.328;10.096;2023-12-22T06:01:59;1.90;;;1.40;;
45548;SDS011;31270;48.328;10.096;2023-12-22T06:04:26;2.90;;;1.97;;
45548;SDS011;31270;48.328;10.096;2023-12-22T06:06:51;3.77;;;2.13;;
45548;SDS011;31270;48.328;10.096;2023-12-22T06:09:17;8.83;;;5.40;;
45548;SDS011;31270;48.328;10.096;2023-12-22T06:11:47;2.87;;;1.40;;
45548;SDS011;31270;48.328;10.096;2023-12-22T06:14:13;6.17;;;1.87;;
45548;SDS011;31270;48.328;10.096;2023-12-22T06:16:38;8.40;;;1.70;;
45548;SDS011;31270;48.328;10.096;2023-12-22T06:19:04;11.03;;;2.60;;
45548;SDS011;31270;48.328;10.096;2023-12-22T06:21:30;4.53;;;1.70;;
45548;SDS011;31270;48.328;10.096;2023-12-22T06:23:56;7.13;;;1.50;;
45548;SDS011;31270;48.328;10.096;2023-12-22T06:26:21;4.80;;;1.60;;
45548;SDS011;31270;48.328;10.096;2023-12-22T06:28:47;7.27;;;2.23;;
45548;SDS011;31270;48.328;10.096;2023-12-22T06:31:16;5.53;;;2.17;;
45548;SDS011;31270;48.328;10.096;2023-12-22T06:33:45;6.77;;;2.00;;
45548;SDS011;31270;48.328;10.096;2023-12-22T06:36:45;7.73;;;2.37;;
45548;SDS011;31270;48.328;10.096;2023-12-22T06:39:04;5.07;;;2.20;;
45548;SDS011;31270;48.328;10.096;2023-12-22T06:41:30;6.00;;;2.30;;
45548;SDS011;31270;48.328;10.096;2023-12-22T06:43:56;6.77;;;1.77;;
45548;SDS011;31270;48.328;10.096;2023-12-22T06:46:25;8.03;;;2.10;;
45548;SDS011;31270;48.328;10.096;2023-12-22T06:48:54;6.33;;;2.20;;
45548;SDS011;31270;48.328;10.096;2023-12-22T06:51:21;3.43;;;1.90;;
45548;SDS011;31270;48.328;10.096;2023-12-22T06:53:48;1.77;;;1.40;;
45548;SDS011;31270;48.328;10.096;2023-12-22T06:56:18;5.60;;;1.60;;
45548;SDS011;31270;48.328;10.096;2023-12-22T06:58:45;8.23;;;1.90;;
45548;SDS011;31270;48.328;10.096;2023-12-22T07:01:18;6.20;;;1.50;;
45548;SDS011;31270;48.328;10.096;2023-12-22T07:03:52;5.63;;;2.30;;
45548;SDS011;31270;48.328;10.096;2023-12-22T07:06:20;4.60;;;1.87;;
45548;SDS011;31270;48.328;10.096;2023-12-22T07:08:56;3.70;;;1.60;;
45548;SDS011;31270;48.328;10.096;2023-12-22T07:11:44;3.33;;;1.63;;
45548;SDS011;31270;48.328;10.096;2023-12-22T07:14:17;5.47;;;1.70;;
45548;SDS011;31270;48.328;10.096;2023-12-22T07:16:43;3.63;;;2.33;;
45548;SDS011;31270;48.328;10.096;2023-12-22T07:19:09;4.90;;;2.30;;
45548;SDS011;31270;48.328;10.096;2023-12-22T07:21:41;9.43;;;1.73;;
45548;SDS011;31270;48.328;10.096;2023-12-22T07:24:07;10.03;;;2.03;;
45548;SDS011;31270;48.328;10.096;2023-12-22T07:26:33;6.17;;;1.70;;
45548;SDS011;31270;48.328;10.096;2023-12-22T07:28:58;5.23;;;1.90;;
45548;SDS011;31270;48.328;10.096;2023-12-22T07:31:24;8.70;;;1.90;;
45548;SDS011;31270;48.328;10.096;2023-12-22T07:33:50;3.40;;;1.57;;
45548;SDS011;31270;48.328;10.096;2023-12-22T07:36:17;5.13;;;1.63;;
45548;SDS011;31270;48.328;10.096;2023-12-22T07:38:46;1.77;;;1.37;;
45548;SDS011;31270;48.328;10.096;2023-12-22T07:41:12;3.03;;;1.40;;
45548;SDS011;31270;48.328;10.096;2023-12-22T07:43:37;5.60;;;1.67;;
45548;SDS011;31270;48.328;10.096;2023-12-22T07:46:03;3.33;;;1.73;;
45548;SDS011;31270;48.328;10.096;2023-12-22T07:48:29;4.30;;;1.70;;
45548;SDS011;31270;48.328;10.096;2023-12-22T07:50:54;2.93;;;1.90;;
45548;SDS011;31270;48.328;10.096;2023-12-22T07:53:20;3.70;;;1.53;;
45548;SDS011;31270;48.328;10.096;2023-12-22T07:55:46;3.77;;;2.00;;
45548;SDS011;31270;48.328;10.096;2023-12-22T07:58:12;6.47;;;1.73;;
45548;SDS011;31270;48.328;10.096;2023-12-22T08:00:38;5.70;;;2.30;;
45548;SDS011;31270;48.328;10.096;2023-12-22T08:03:04;8.03;;;2.23;;
45548;SDS011;31270;48.328;10.096;2023-12-22T08:05:30;6.07;;;2.07;;
45548;SDS011;31270;48.328;10.096;2023-12-22T08:07:56;5.57;;;2.03;;
45548;SDS011;31270;48.328;10.096;2023-12-22T08:10:21;5.33;;;1.77;;
45548;SDS011;31270;48.328;10.096;2023-12-22T08:12:47;6.73;;;2.40;;
45548;SDS011;31270;48.328;10.096;2023-12-22T08:15:13;7.07;;;2.40;;
45548;SDS011;31270;48.328;10.096;2023-12-22T08:17:48;9.20;;;2.63;;
45548;SDS011;31270;48.328;10.096;2023-12-22T08:20:18;6.27;;;2.20;;
45548;SDS011;31270;48.328;10.096;2023-12-22T08:22:45;6.97;;;2.10;;
45548;SDS011;31270;48.328;10.096;2023-12-22T08:25:11;7.87;;;2.40;;
45548;SDS011;31270;48.328;10.096;2023-12-22T08:27:37;12.70;;;2.30;;
45548;SDS011;31270;48.328;10.096;2023-12-22T08:30:02;9.10;;;2.27;;
45548;SDS011;31270;48.328;10.096;2023-12-22T08:32:28;12.97;;;2.83;;
45548;SDS011;31270;48.328;10.096;2023-12-22T08:34:54;17.13;;;6.90;;
45548;SDS011;31270;48.328;10.096;2023-12-22T08:37:20;6.90;;;2.93;;
45548;SDS011;31270;48.328;10.096;2023-12-22T08:39:45;6.20;;;2.63;;
45548;SDS011;31270;48.328;10.096;2023-12-22T08:42:11;8.77;;;2.40;;
45548;SDS011;31270;48.328;10.096;2023-12-22T08:44:37;6.37;;;2.23;;
45548;SDS011;31270;48.328;10.096;2023-12-22T08:47:03;10.50;;;2.70;;
45548;SDS011;31270;48.328;10.096;2023-12-22T08:49:28;8.33;;;2.40;;
45548;SDS011;31270;48.328;10.096;2023-12-22T08:51:54;5.03;;;2.50;;
45548;SDS011;31270;48.328;10.096;2023-12-22T08:54:19;8.23;;;2.67;;
45548;SDS011;31270;48.328;10.096;2023-12-22T08:56:45;6.77;;;2.37;;
45548;SDS011;31270;48.328;10.096;2023-12-22T08:59:10;4.97;;;2.07;;
45548;SDS011;31270;48.328;10.096;2023-12-22T09:01:36;11.23;;;2.13;;
45548;SDS011;31270;48.328;10.096;2023-12-22T09:04:02;9.57;;;2.33;;
45548;SDS011;31270;48.328;10.096;2023-12-22T09:06:27;5.97;;;2.70;;
45548;SDS011;31270;48.328;10.096;2023-12-22T09:08:53;5.00;;;1.90;;
45548;SDS011;31270;48.328;10.096;2023-12-22T09:11:19;5.20;;;2.13;;
45548;SDS011;31270;48.328;10.096;2023-12-22T09:13:46;2.33;;;2.00;;
45548;SDS011;31270;48.328;10.096;2023-12-22T09:16:11;6.77;;;1.97;;
45548;SDS011;31270;48.328;10.096;2023-12-22T09:18:40;7.30;;;1.90;;
45548;SDS011;31270;48.328;10.096;2023-12-22T09:21:07;17.17;;;2.00;;
45548;SDS011;31270;48.328;10.096;2023-12-22T09:23:32;5.43;;;1.83;;
45548;SDS011;31270;48.328;10.096;2023-12-22T09:25:58;4.07;;;1.87;;
45548;SDS011;31270;48.328;10.096;2023-12-22T09:28:24;3.90;;;2.03;;
45548;SDS011;31270;48.328;10.096;2023-12-22T09:30:50;11.13;;;1.90;;
45548;SDS011;31270;48.328;10.096;2023-12-22T09:33:16;6.73;;;1.70;;
45548;SDS011;31270;48.328;10.096;2023-12-22T09:35:41;5.50;;;1.83;;
45548;SDS011;31270;48.328;10.096;2023-12-22T09:38:08;5.70;;;1.60;;
45548;SDS011;31270;48.328;10.096;2023-12-22T09:40:46;2.50;;;1.60;;
45548;SDS011;31270;48.328;10.096;2023-12-22T09:43:11;5.77;;;2.07;;
45548;SDS011;31270;48.328;10.096;2023-12-22T09:45:39;2.20;;;1.50;;
45548;SDS011;31270;48.328;10.096;2023-12-22T09:48:06;2.53;;;1.43;;
45548;SDS011;31270;48.328;10.096;2023-12-22T09:50:32;3.70;;;1.80;;
45548;SDS011;31270;48.328;10.096;2023-12-22T09:52:59;3.17;;;1.53;;
45548;SDS011;31270;48.328;10.096;2023-12-22T09:55:26;3.57;;;1.30;;
45548;SDS011;31270;48.328;10.096;2023-12-22T09:57:53;4.37;;;1.30;;
45548;SDS011;31270;48.328;10.096;2023-12-22T10:00:20;5.70;;;1.60;;
45548;SDS011;31270;48.328;10.096;2023-12-22T10:02:47;4.63;;;1.60;;
45548;SDS011;31270;48.328;10.096;2023-12-22T10:05:13;2.63;;;1.53;;
45548;SDS011;31270;48.328;10.096;2023-12-22T10:07:40;3.30;;;1.60;;
45548;SDS011;31270;48.328;10.096;2023-12-22T10:10:09;5.30;;;1.57;;
45548;SDS011;31270;48.328;10.096;2023-12-22T10:12:36;4.70;;;1.73;;
45548;SDS011;31270;48.328;10.096;2023-12-22T10:15:05;3.07;;;1.70;;
45548;SDS011;31270;48.328;10.096;2023-12-22T10:17:33;5.13;;;1.63;;
45548;SDS011;31270;48.328;10.096;2023-12-22T10:20:00;4.60;;;1.70;;
45548;SDS011;31270;48.328;10.096;2023-12-22T10:22:26;7.63;;;1.40;;
45548;SDS011;31270;48.328;10.096;2023-12-22T10:24:51;5.50;;;1.60;;
45548;SDS011;31270;48.328;10.096;2023-12-22T10:27:17;2.40;;;1.77;;
45548;SDS011;31270;48.328;10.096;2023-12-22T10:29:49;2.70;;;1.40;;
45548;SDS011;31270;48.328;10.096;2023-12-22T10:32:15;3.47;;;1.50;;
45548;SDS011;31270;48.328;10.096;2023-12-22T10:34:42;4.13;;;1.67;;
45548;SDS011;31270;48.328;10.096;2023-12-22T10:37:08;3.83;;;1.60;;
45548;SDS011;31270;48.328;10.096;2023-12-22T10:39:35;3.40;;;1.80;;
45548;SDS011;31270;48.328;10.096;2023-12-22T10:42:01;6.53;;;1.80;;
45548;SDS011;31270;48.328;10.096;2023-12-22T10:44:27;4.87;;;1.87;;
45548;SDS011;31270;48.328;10.096;2023-12-22T10:46:54;4.80;;;1.80;;
45548;SDS011;31270;48.328;10.096;2023-12-22T10:49:21;4.13;;;1.67;;
45548;SDS011;31270;48.328;10.096;2023-12-22T10:51:48;4.70;;;1.80;;
45548;SDS011;31270;48.328;10.096;2023-12-22T10:54:14;4.90;;;1.70;;
45548;SDS011;31270;48.328;10.096;2023-12-22T10:56:41;4.00;;;1.60;;
45548;SDS011;31270;48.328;10.096;2023-12-22T10:59:07;6.80;;;1.83;;
45548;SDS011;31270;48.328;10.096;2023-12-22T11:01:33;2.77;;;1.90;;
45548;SDS011;31270;48.328;10.096;2023-12-22T11:04:08;5.00;;;1.73;;
45548;SDS011;31270;48.328;10.096;2023-12-22T11:06:36;10.17;;;2.33;;
45548;SDS011;31270;48.328;10.096;2023-12-22T11:09:03;4.67;;;1.90;;
45548;SDS011;31270;48.328;10.096;2023-12-22T11:11:34;5.13;;;2.10;;
45548;SDS011;31270;48.328;10.096;2023-12-22T11:14:01;6.63;;;2.17;;
45548;SDS011;31270;48.328;10.096;2023-12-22T11:16:27;5.97;;;1.87;;
45548;SDS011;31270;48.328;10.096;2023-12-22T11:18:58;6.87;;;2.30;;
45548;SDS011;31270;48.328;10.096;2023-12-22T11:21:24;6.73;;;1.70;;
45548;SDS011;31270;48.328;10.096;2023-12-22T11:23:51;5.00;;;1.77;;
45548;SDS011;31270;48.328;10.096;2023-12-22T11:26:18;5.73;;;1.80;;
45548;SDS011;31270;48.328;10.096;2023-12-22T11:28:45;7.40;;;2.00;;
45548;SDS011;31270;48.328;10.096;2023-12-22T11:31:12;5.13;;;1.53;;
45548;SDS011;31270;48.328;10.096;2023-12-22T11:33:47;4.20;;;1.73;;
45548;SDS011;31270;48.328;10.096;2023-12-22T11:36:13;6.10;;;1.90;;
45548;SDS011;31270;48.328;10.096;2023-12-22T11:38:40;4.70;;;1.83;;
45548;SDS011;31270;48.328;10.096;2023-12-22T11:41:12;5.87;;;1.80;;
45548;SDS011;31270;48.328;10.096;2023-12-22T11:43:40;3.53;;;1.77;;
45548;SDS011;31270;48.328;10.096;2023-12-22T11:46:08;7.63;;;1.90;;
45548;SDS011;31270;48.328;10.096;2023-12-22T11:48:34;7.93;;;2.00;;
45548;SDS011;31270;48.328;10.096;2023-12-22T11:51:00;7.77;;;1.57;;
45548;SDS011;31270;48.328;10.096;2023-12-22T11:53:30;5.93;;;1.77;;
45548;SDS011;31270;48.328;10.096;2023-12-22T11:56:02;5.27;;;1.70;;
45548;SDS011;31270;48.328;10.096;2023-12-22T12:01:00;7.13;;;2.17;;
45548;SDS011;31270;48.328;10.096;2023-12-22T12:03:29;6.70;;;1.97;;
45548;SDS011;31270;48.328;10.096;2023-12-22T12:06:15;5.93;;;1.80;;
45548;SDS011;31270;48.328;10.096;2023-12-22T12:08:42;6.43;;;2.10;;
45548;SDS011;31270;48.328;10.096;2023-12-22T12:11:08;6.80;;;2.20;;
45548;SDS011;31270;48.328;10.096;2023-12-22T12:13:34;6.30;;;2.00;;
45548;SDS011;31270;48.328;10.096;2023-12-22T12:16:02;6.43;;;2.87;;
45548;SDS011;31270;48.328;10.096;2023-12-22T12:18:31;13.40;;;5.93;;
45548;SDS011;31270;48.328;10.096;2023-12-22T12:20:58;16.43;;;6.27;;
45548;SDS011;31270;48.328;10.096;2023-12-22T12:23:25;14.90;;;4.53;;
45548;SDS011;31270;48.328;10.096;2023-12-22T12:25:54;15.07;;;5.50;;
45548;SDS011;31270;48.328;10.096;2023-12-22T12:28:28;20.23;;;10.83;;
45548;SDS011;31270;48.328;10.096;2023-12-22T12:31:13;14.07;;;5.87;;
45548;SDS011;31270;48.328;10.096;2023-12-22T12:33:39;4.87;;;2.90;;
45548;SDS011;31270;48.328;10.096;2023-12-22T12:36:05;9.87;;;3.60;;
45548;SDS011;31270;48.328;10.096;2023-12-22T12:38:36;9.33;;;3.00;;
45548;SDS011;31270;48.328;10.096;2023-12-22T12:41:18;7.57;;;3.50;;
45548;SDS011;31270;48.328;10.096;2023-12-22T12:43:55;6.70;;;2.60;;
45548;SDS011;31270;48.328;10.096;2023-12-22T12:46:23;4.20;;;2.30;;
45548;SDS011;31270;48.328;10.096;2023-12-22T12:48:48;3.60;;;1.90;;
45548;SDS011;31270;48.328;10.096;2023-12-22T12:51:27;7.50;;;4.20;;
45548;SDS011;31270;48.328;10.096;2023-12-22T12:53:52;4.37;;;2.23;;
45548;SDS011;31270;48.328;10.096;2023-12-22T12:56:18;7.47;;;3.53;;
45548;SDS011;31270;48.328;10.096;2023-12-22T12:58:43;5.30;;;2.27;;
45548;SDS011;31270;48.328;10.096;2023-12-22T13:01:09;6.00;;;3.07;;
45548;SDS011;31270;48.328;10.096;2023-12-22T13:03:52;5.37;;;2.00;;
45548;SDS011;31270;48.328;10.096;2023-12-22T13:06:21;4.80;;;2.10;;
45548;SDS011;31270;48.328;10.096;2023-12-22T13:08:50;5.43;;;1.83;;
45548;SDS011;31270;48.328;10.096;2023-12-22T13:11:23;3.80;;;2.07;;
45548;SDS011;31270;48.328;10.096;2023-12-22T13:13:51;3.33;;;2.07;;
45548;SDS011;31270;48.328;10.096;2023-12-22T13:16:21;5.67;;;2.03;;
45548;SDS011;31270;48.328;10.096;2023-12-22T13:18:57;6.70;;;2.43;;
45548;SDS011;31270;48.328;10.096;2023-12-22T13:21:24;4.47;;;2.20;;
45548;SDS011;31270;48.328;10.096;2023-12-22T13:24:09;4.17;;;1.90;;
45548;SDS011;31270;48.328;10.096;2023-12-22T13:26:39;5.83;;;1.97;;
45548;SDS011;31270;48.328;10.096;2023-12-22T13:29:09;3.47;;;2.20;;
45548;SDS011;31270;48.328;10.096;2023-12-22T13:31:39;3.63;;;2.17;;
45548;SDS011;31270;48.328;10.096;2023-12-22T13:34:09;4.37;;;2.40;;
45548;SDS011;31270;48.328;10.096;2023-12-22T13:36:36;3.00;;;2.03;;
45548;SDS011;31270;48.328;10.096;2023-12-22T13:39:02;2.30;;;1.40;;
45548;SDS011;31270;48.328;10.096;2023-12-22T13:41:33;2.77;;;1.80;;
45548;SDS011;31270;48.328;10.096;2023-12-22T13:44:12;2.87;;;1.80;;
45548;SDS011;31270;48.328;10.096;2023-12-22T13:46:38;3.03;;;1.77;;
45548;SDS011;31270;48.328;10.096;2023-12-22T13:49:09;2.53;;;1.67;;
45548;SDS011;31270;48.328;10.096;2023-12-22T13:51:41;3.70;;;1.77;;
45548;SDS011;31270;48.328;10.096;2023-12-22T13:54:08;3.63;;;1.80;;
45548;SDS011;31270;48.328;10.096;2023-12-22T13:56:34;4.23;;;1.93;;
45548;SDS011;31270;48.328;10.096;2023-12-22T13:59:01;3.40;;;1.63;;
45548;SDS011;31270;48.328;10.096;2023-12-22T14:01:27;3.70;;;1.83;;
45548;SDS011;31270;48.328;10.096;2023-12-22T14:03:53;4.07;;;1.90;;
45548;SDS011;31270;48.328;10.096;2023-12-22T14:06:19;4.23;;;1.70;;
45548;SDS011;31270;48.328;10.096;2023-12-22T14:08:44;4.07;;;1.73;;
45548;SDS011;31270;48.328;10.096;2023-12-22T14:11:10;5.30;;;1.97;;
45548;SDS011;31270;48.328;10.096;2023-12-22T14:13:36;3.43;;;1.73;;
45548;SDS011;31270;48.328;10.096;2023-12-22T14:16:08;3.70;;;1.63;;
45548;SDS011;31270;48.328;10.096;2023-12-22T14:18:34;2.40;;;1.30;;
45548;SDS011;31270;48.328;10.096;2023-12-22T14:21:00;3.17;;;1.50;;
45548;SDS011;31270;48.328;10.096;2023-12-22T14:23:25;5.00;;;1.70;;
45548;SDS011;31270;48.328;10.096;2023-12-22T14:25:52;2.00;;;1.73;;
45548;SDS011;31270;48.328;10.096;2023-12-22T14:28:18;2.87;;;1.20;;
45548;SDS011;31270;48.328;10.096;2023-12-22T14:30:45;4.90;;;1.60;;
45548;SDS011;31270;48.328;10.096;2023-12-22T14:33:11;2.53;;;1.57;;
45548;SDS011;31270;48.328;10.096;2023-12-22T14:35:36;1.83;;;1.20;;